sensor_id;sensor_type;location;lat;lon;timestamp;P1;durP1;ratioP1;P2;durP2;ratioP2
39924;SDS011;25592;49.986;11.618;2022-07-29T00:01:47;4.03;;;1.50;;
39924;SDS011;25592;49.986;11.618;2022-07-29T00:04:36;5.25;;;2.00;;
39924;SDS011;25592;49.986;11.618;2022-07-29T00:07:22;6.25;;;1.83;;
39924;SDS011;25592;49.986;11.618;2022-07-29T00:10:07;4.43;;;1.50;;
39924;SDS011;25592;49.986;11.618;2022-07-29T00:12:53;4.10;;;1.58;;
39924;SDS011;25592;49.986;11.618;2022-07-29T00:15:39;5.82;;;1.67;;
39924;SDS011;25592;49.986;11.618;2022-07-29T00:18:24;6.90;;;1.75;;
39924;SDS011;25592;49.986;11.618;2022-07-29T00:21:09;5.45;;;1.65;;
39924;SDS011;25592;49.986;11.618;2022-07-29T00:23:55;4.55;;;1.60;;
39924;SDS011;25592;49.986;11.618;2022-07-29T00:26:40;4.40;;;1.77;;
39924;SDS011;25592;49.986;11.618;2022-07-29T00:29:26;5.00;;;1.83;;
39924;SDS011;25592;49.986;11.618;2022-07-29T00:32:19;3.53;;;1.50;;
39924;SDS011;25592;49.986;11.618;2022-07-29T00:35:05;4.63;;;1.73;;
39924;SDS011;25592;49.986;11.618;2022-07-29T00:38:13;6.07;;;1.60;;
39924;SDS011;25592;49.986;11.618;2022-07-29T00:40:59;4.82;;;1.60;;
39924;SDS011;25592;49.986;11.618;2022-07-29T00:43:45;5.35;;;1.90;;
39924;SDS011;25592;49.986;11.618;2022-07-29T00:46:30;4.20;;;1.90;;
39924;SDS011;25592;49.986;11.618;2022-07-29T00:49:15;6.38;;;2.63;;
39924;SDS011;25592;49.986;11.618;2022-07-29T00:52:06;3.75;;;1.58;;
39924;SDS011;25592;49.986;11.618;2022-07-29T00:54:52;6.22;;;2.45;;
39924;SDS011;25592;49.986;11.618;2022-07-29T00:57:38;4.25;;;1.60;;
39924;SDS011;25592;49.986;11.618;2022-07-29T01:00:25;6.25;;;2.13;;
39924;SDS011;25592;49.986;11.618;2022-07-29T01:03:11;6.43;;;2.42;;
39924;SDS011;25592;49.986;11.618;2022-07-29T01:05:57;4.18;;;1.73;;
39924;SDS011;25592;49.986;11.618;2022-07-29T01:08:43;4.82;;;1.83;;
39924;SDS011;25592;49.986;11.618;2022-07-29T01:11:30;4.32;;;1.63;;
39924;SDS011;25592;49.986;11.618;2022-07-29T01:14:15;4.40;;;1.65;;
39924;SDS011;25592;49.986;11.618;2022-07-29T01:17:05;4.82;;;1.80;;
39924;SDS011;25592;49.986;11.618;2022-07-29T01:20:03;4.38;;;1.60;;
39924;SDS011;25592;49.986;11.618;2022-07-29T01:29:11;6.70;;;1.65;;
39924;SDS011;25592;49.986;11.618;2022-07-29T01:32:05;5.47;;;1.40;;
39924;SDS011;25592;49.986;11.618;2022-07-29T01:38:00;6.22;;;2.05;;
39924;SDS011;25592;49.986;11.618;2022-07-29T01:40:54;5.13;;;1.73;;
39924;SDS011;25592;49.986;11.618;2022-07-29T01:43:58;4.65;;;1.55;;
39924;SDS011;25592;49.986;11.618;2022-07-29T01:46:49;4.80;;;1.85;;
39924;SDS011;25592;49.986;11.618;2022-07-29T01:49:39;3.17;;;1.70;;
39924;SDS011;25592;49.986;11.618;2022-07-29T01:52:31;4.78;;;1.75;;
39924;SDS011;25592;49.986;11.618;2022-07-29T01:55:22;5.18;;;1.33;;
39924;SDS011;25592;49.986;11.618;2022-07-29T01:58:12;5.90;;;1.50;;
39924;SDS011;25592;49.986;11.618;2022-07-29T02:00:58;3.13;;;1.38;;
39924;SDS011;25592;49.986;11.618;2022-07-29T02:03:45;4.95;;;1.88;;
39924;SDS011;25592;49.986;11.618;2022-07-29T02:06:32;5.82;;;1.90;;
39924;SDS011;25592;49.986;11.618;2022-07-29T02:09:19;3.83;;;1.85;;
39924;SDS011;25592;49.986;11.618;2022-07-29T02:12:06;5.53;;;1.70;;
39924;SDS011;25592;49.986;11.618;2022-07-29T02:14:53;4.07;;;2.00;;
39924;SDS011;25592;49.986;11.618;2022-07-29T02:17:42;7.53;;;2.00;;
39924;SDS011;25592;49.986;11.618;2022-07-29T02:20:31;3.97;;;1.58;;
39924;SDS011;25592;49.986;11.618;2022-07-29T02:23:19;3.22;;;1.65;;
39924;SDS011;25592;49.986;11.618;2022-07-29T02:26:07;3.72;;;1.70;;
39924;SDS011;25592;49.986;11.618;2022-07-29T02:28:54;7.10;;;2.22;;
39924;SDS011;25592;49.986;11.618;2022-07-29T02:31:41;4.95;;;1.95;;
39924;SDS011;25592;49.986;11.618;2022-07-29T02:34:28;6.60;;;1.85;;
39924;SDS011;25592;49.986;11.618;2022-07-29T02:37:14;5.25;;;1.90;;
39924;SDS011;25592;49.986;11.618;2022-07-29T02:40:02;4.15;;;2.15;;
39924;SDS011;25592;49.986;11.618;2022-07-29T02:42:50;6.80;;;2.40;;
39924;SDS011;25592;49.986;11.618;2022-07-29T02:45:35;4.93;;;1.92;;
39924;SDS011;25592;49.986;11.618;2022-07-29T02:48:22;4.47;;;2.22;;
39924;SDS011;25592;49.986;11.618;2022-07-29T02:51:32;6.55;;;2.25;;
39924;SDS011;25592;49.986;11.618;2022-07-29T02:54:42;3.72;;;1.80;;
39924;SDS011;25592;49.986;11.618;2022-07-29T02:57:34;6.45;;;2.50;;
39924;SDS011;25592;49.986;11.618;2022-07-29T03:00:39;4.88;;;2.13;;
39924;SDS011;25592;49.986;11.618;2022-07-29T03:03:27;8.00;;;1.98;;
39924;SDS011;25592;49.986;11.618;2022-07-29T03:06:16;6.47;;;2.00;;
39924;SDS011;25592;49.986;11.618;2022-07-29T03:09:14;4.20;;;1.92;;
39924;SDS011;25592;49.986;11.618;2022-07-29T03:12:00;4.45;;;1.77;;
39924;SDS011;25592;49.986;11.618;2022-07-29T03:14:46;3.75;;;1.70;;
39924;SDS011;25592;49.986;11.618;2022-07-29T03:17:33;4.05;;;1.70;;
39924;SDS011;25592;49.986;11.618;2022-07-29T03:20:19;3.63;;;1.80;;
39924;SDS011;25592;49.986;11.618;2022-07-29T03:23:04;4.55;;;1.73;;
39924;SDS011;25592;49.986;11.618;2022-07-29T03:25:50;4.28;;;1.60;;
39924;SDS011;25592;49.986;11.618;2022-07-29T03:28:35;6.03;;;1.92;;
39924;SDS011;25592;49.986;11.618;2022-07-29T03:31:23;3.35;;;1.83;;
39924;SDS011;25592;49.986;11.618;2022-07-29T03:34:08;3.55;;;1.92;;
39924;SDS011;25592;49.986;11.618;2022-07-29T03:36:54;5.20;;;1.92;;
39924;SDS011;25592;49.986;11.618;2022-07-29T03:39:40;6.32;;;2.38;;
39924;SDS011;25592;49.986;11.618;2022-07-29T03:42:30;6.85;;;2.45;;
39924;SDS011;25592;49.986;11.618;2022-07-29T03:45:18;4.32;;;2.03;;
39924;SDS011;25592;49.986;11.618;2022-07-29T03:48:06;6.55;;;1.85;;
39924;SDS011;25592;49.986;11.618;2022-07-29T03:50:54;4.72;;;2.10;;
39924;SDS011;25592;49.986;11.618;2022-07-29T03:53:40;4.05;;;2.03;;
39924;SDS011;25592;49.986;11.618;2022-07-29T03:56:25;4.55;;;2.33;;
39924;SDS011;25592;49.986;11.618;2022-07-29T03:59:13;5.20;;;2.47;;
39924;SDS011;25592;49.986;11.618;2022-07-29T04:01:59;4.43;;;2.17;;
39924;SDS011;25592;49.986;11.618;2022-07-29T04:04:47;5.07;;;2.30;;
39924;SDS011;25592;49.986;11.618;2022-07-29T04:07:33;4.95;;;2.25;;
39924;SDS011;25592;49.986;11.618;2022-07-29T04:10:18;4.82;;;1.95;;
39924;SDS011;25592;49.986;11.618;2022-07-29T04:13:14;6.15;;;2.15;;
39924;SDS011;25592;49.986;11.618;2022-07-29T04:15:59;6.15;;;2.22;;
39924;SDS011;25592;49.986;11.618;2022-07-29T04:18:45;6.05;;;1.98;;
39924;SDS011;25592;49.986;11.618;2022-07-29T04:21:30;4.15;;;1.80;;
39924;SDS011;25592;49.986;11.618;2022-07-29T04:24:15;5.60;;;2.00;;
39924;SDS011;25592;49.986;11.618;2022-07-29T04:27:02;4.38;;;1.95;;
39924;SDS011;25592;49.986;11.618;2022-07-29T04:29:47;3.92;;;1.42;;
39924;SDS011;25592;49.986;11.618;2022-07-29T04:32:41;6.85;;;2.45;;
39924;SDS011;25592;49.986;11.618;2022-07-29T04:35:27;7.82;;;1.70;;
39924;SDS011;25592;49.986;11.618;2022-07-29T04:38:12;4.95;;;2.22;;
39924;SDS011;25592;49.986;11.618;2022-07-29T04:41:01;6.57;;;1.70;;
39924;SDS011;25592;49.986;11.618;2022-07-29T04:43:46;4.28;;;1.83;;
39924;SDS011;25592;49.986;11.618;2022-07-29T04:46:32;5.53;;;2.20;;
39924;SDS011;25592;49.986;11.618;2022-07-29T04:49:18;4.88;;;2.20;;
39924;SDS011;25592;49.986;11.618;2022-07-29T04:52:03;4.32;;;1.90;;
39924;SDS011;25592;49.986;11.618;2022-07-29T04:54:49;10.63;;;2.13;;
39924;SDS011;25592;49.986;11.618;2022-07-29T04:57:34;6.40;;;1.90;;
39924;SDS011;25592;49.986;11.618;2022-07-29T05:00:20;7.93;;;2.10;;
39924;SDS011;25592;49.986;11.618;2022-07-29T05:03:11;6.55;;;2.20;;
39924;SDS011;25592;49.986;11.618;2022-07-29T05:05:57;4.47;;;1.85;;
39924;SDS011;25592;49.986;11.618;2022-07-29T05:08:42;5.50;;;1.80;;
39924;SDS011;25592;49.986;11.618;2022-07-29T05:11:27;6.80;;;1.92;;
39924;SDS011;25592;49.986;11.618;2022-07-29T05:14:14;8.75;;;2.45;;
39924;SDS011;25592;49.986;11.618;2022-07-29T05:17:00;33.60;;;4.78;;
39924;SDS011;25592;49.986;11.618;2022-07-29T05:19:45;11.63;;;3.03;;
39924;SDS011;25592;49.986;11.618;2022-07-29T05:22:31;8.40;;;2.30;;
39924;SDS011;25592;49.986;11.618;2022-07-29T05:25:16;5.00;;;2.17;;
39924;SDS011;25592;49.986;11.618;2022-07-29T05:28:01;5.95;;;2.55;;
39924;SDS011;25592;49.986;11.618;2022-07-29T05:30:47;7.10;;;2.33;;
39924;SDS011;25592;49.986;11.618;2022-07-29T05:33:33;5.75;;;2.65;;
39924;SDS011;25592;49.986;11.618;2022-07-29T05:36:21;5.93;;;2.65;;
39924;SDS011;25592;49.986;11.618;2022-07-29T05:39:06;6.18;;;2.22;;
39924;SDS011;25592;49.986;11.618;2022-07-29T05:41:52;4.13;;;2.65;;
39924;SDS011;25592;49.986;11.618;2022-07-29T05:44:37;6.20;;;2.25;;
39924;SDS011;25592;49.986;11.618;2022-07-29T05:47:24;5.57;;;2.38;;
39924;SDS011;25592;49.986;11.618;2022-07-29T05:50:09;5.60;;;2.45;;
39924;SDS011;25592;49.986;11.618;2022-07-29T05:52:54;6.68;;;2.20;;
39924;SDS011;25592;49.986;11.618;2022-07-29T05:55:40;9.90;;;3.25;;
39924;SDS011;25592;49.986;11.618;2022-07-29T05:58:25;4.70;;;2.28;;
39924;SDS011;25592;49.986;11.618;2022-07-29T06:01:10;6.53;;;2.50;;
39924;SDS011;25592;49.986;11.618;2022-07-29T06:03:56;5.68;;;2.40;;
39924;SDS011;25592;49.986;11.618;2022-07-29T06:06:44;5.85;;;2.08;;
39924;SDS011;25592;49.986;11.618;2022-07-29T06:09:30;4.00;;;2.20;;
39924;SDS011;25592;49.986;11.618;2022-07-29T06:12:15;10.05;;;2.40;;
39924;SDS011;25592;49.986;11.618;2022-07-29T06:15:00;4.78;;;2.25;;
39924;SDS011;25592;49.986;11.618;2022-07-29T06:17:46;4.60;;;1.80;;
39924;SDS011;25592;49.986;11.618;2022-07-29T06:20:45;6.10;;;2.13;;
39924;SDS011;25592;49.986;11.618;2022-07-29T06:23:31;4.40;;;1.75;;
39924;SDS011;25592;49.986;11.618;2022-07-29T06:26:16;4.60;;;1.85;;
39924;SDS011;25592;49.986;11.618;2022-07-29T06:29:14;5.43;;;1.98;;
39924;SDS011;25592;49.986;11.618;2022-07-29T06:32:00;5.00;;;2.08;;
39924;SDS011;25592;49.986;11.618;2022-07-29T06:34:46;7.10;;;2.20;;
39924;SDS011;25592;49.986;11.618;2022-07-29T06:37:32;5.43;;;2.15;;
39924;SDS011;25592;49.986;11.618;2022-07-29T06:40:20;4.65;;;1.90;;
39924;SDS011;25592;49.986;11.618;2022-07-29T06:43:24;4.40;;;2.10;;
39924;SDS011;25592;49.986;11.618;2022-07-29T06:46:11;4.60;;;1.98;;
39924;SDS011;25592;49.986;11.618;2022-07-29T06:48:58;5.68;;;1.67;;
39924;SDS011;25592;49.986;11.618;2022-07-29T06:51:43;5.35;;;1.83;;
39924;SDS011;25592;49.986;11.618;2022-07-29T06:54:29;4.28;;;1.75;;
39924;SDS011;25592;49.986;11.618;2022-07-29T06:57:14;4.97;;;2.33;;
39924;SDS011;25592;49.986;11.618;2022-07-29T06:59:59;6.53;;;1.77;;
39924;SDS011;25592;49.986;11.618;2022-07-29T07:02:45;3.42;;;1.52;;
39924;SDS011;25592;49.986;11.618;2022-07-29T07:05:31;5.63;;;2.00;;
39924;SDS011;25592;49.986;11.618;2022-07-29T07:08:16;9.20;;;3.10;;
39924;SDS011;25592;49.986;11.618;2022-07-29T07:11:02;10.07;;;2.65;;
39924;SDS011;25592;49.986;11.618;2022-07-29T07:13:48;7.38;;;2.15;;
39924;SDS011;25592;49.986;11.618;2022-07-29T07:16:34;6.78;;;2.58;;
39924;SDS011;25592;49.986;11.618;2022-07-29T07:19:19;5.90;;;2.53;;
39924;SDS011;25592;49.986;11.618;2022-07-29T07:22:04;6.15;;;2.33;;
39924;SDS011;25592;49.986;11.618;2022-07-29T07:24:50;5.13;;;2.35;;
39924;SDS011;25592;49.986;11.618;2022-07-29T07:27:35;6.55;;;2.45;;
39924;SDS011;25592;49.986;11.618;2022-07-29T07:30:22;8.45;;;2.42;;
39924;SDS011;25592;49.986;11.618;2022-07-29T07:33:07;6.95;;;2.83;;
39924;SDS011;25592;49.986;11.618;2022-07-29T07:35:52;6.18;;;2.30;;
39924;SDS011;25592;49.986;11.618;2022-07-29T07:38:38;4.40;;;2.20;;
39924;SDS011;25592;49.986;11.618;2022-07-29T07:41:23;4.32;;;1.90;;
39924;SDS011;25592;49.986;11.618;2022-07-29T07:44:09;5.78;;;2.38;;
39924;SDS011;25592;49.986;11.618;2022-07-29T07:46:59;6.10;;;1.83;;
39924;SDS011;25592;49.986;11.618;2022-07-29T07:49:52;13.15;;;2.53;;
39924;SDS011;25592;49.986;11.618;2022-07-29T07:52:51;7.10;;;2.35;;
39924;SDS011;25592;49.986;11.618;2022-07-29T07:55:39;6.53;;;2.33;;
39924;SDS011;25592;49.986;11.618;2022-07-29T07:58:46;5.07;;;2.03;;
39924;SDS011;25592;49.986;11.618;2022-07-29T08:01:31;6.15;;;2.55;;
39924;SDS011;25592;49.986;11.618;2022-07-29T08:04:37;8.98;;;2.47;;
39924;SDS011;25592;49.986;11.618;2022-07-29T08:07:24;8.02;;;2.38;;
39924;SDS011;25592;49.986;11.618;2022-07-29T08:10:10;3.85;;;1.85;;
39924;SDS011;25592;49.986;11.618;2022-07-29T08:12:55;10.20;;;2.35;;
39924;SDS011;25592;49.986;11.618;2022-07-29T08:15:40;6.00;;;2.20;;
39924;SDS011;25592;49.986;11.618;2022-07-29T08:18:28;4.07;;;2.08;;
39924;SDS011;25592;49.986;11.618;2022-07-29T08:21:15;6.63;;;2.65;;
39924;SDS011;25592;49.986;11.618;2022-07-29T08:24:01;3.67;;;1.85;;
39924;SDS011;25592;49.986;11.618;2022-07-29T08:27:06;5.53;;;2.03;;
39924;SDS011;25592;49.986;11.618;2022-07-29T08:30:12;5.50;;;2.53;;
39924;SDS011;25592;49.986;11.618;2022-07-29T08:32:58;4.40;;;2.20;;
39924;SDS011;25592;49.986;11.618;2022-07-29T08:35:44;4.22;;;2.13;;
39924;SDS011;25592;49.986;11.618;2022-07-29T08:38:30;3.42;;;2.10;;
39924;SDS011;25592;49.986;11.618;2022-07-29T08:41:15;4.72;;;2.65;;
39924;SDS011;25592;49.986;11.618;2022-07-29T08:44:03;5.63;;;2.28;;
39924;SDS011;25592;49.986;11.618;2022-07-29T08:46:49;6.50;;;2.80;;
39924;SDS011;25592;49.986;11.618;2022-07-29T08:49:35;6.68;;;2.47;;
39924;SDS011;25592;49.986;11.618;2022-07-29T08:52:22;5.15;;;2.85;;
39924;SDS011;25592;49.986;11.618;2022-07-29T08:55:10;5.38;;;2.28;;
39924;SDS011;25592;49.986;11.618;2022-07-29T08:57:55;4.72;;;2.90;;
39924;SDS011;25592;49.986;11.618;2022-07-29T09:00:45;4.40;;;2.55;;
39924;SDS011;25592;49.986;11.618;2022-07-29T09:03:37;7.75;;;2.60;;
39924;SDS011;25592;49.986;11.618;2022-07-29T09:06:24;3.97;;;2.60;;
39924;SDS011;25592;49.986;11.618;2022-07-29T09:09:12;4.65;;;2.50;;
39924;SDS011;25592;49.986;11.618;2022-07-29T09:11:59;6.93;;;2.60;;
39924;SDS011;25592;49.986;11.618;2022-07-29T09:14:44;4.60;;;2.67;;
39924;SDS011;25592;49.986;11.618;2022-07-29T09:17:40;5.25;;;2.83;;
39924;SDS011;25592;49.986;11.618;2022-07-29T09:20:33;6.50;;;3.20;;
39924;SDS011;25592;49.986;11.618;2022-07-29T09:23:37;4.75;;;2.75;;
39924;SDS011;25592;49.986;11.618;2022-07-29T09:26:27;5.90;;;2.83;;
39924;SDS011;25592;49.986;11.618;2022-07-29T09:29:18;4.80;;;2.85;;
39924;SDS011;25592;49.986;11.618;2022-07-29T09:32:06;7.20;;;2.92;;
39924;SDS011;25592;49.986;11.618;2022-07-29T09:38:09;8.07;;;2.83;;
39924;SDS011;25592;49.986;11.618;2022-07-29T09:40:58;4.50;;;2.60;;
39924;SDS011;25592;49.986;11.618;2022-07-29T09:43:56;7.95;;;3.50;;
39924;SDS011;25592;49.986;11.618;2022-07-29T09:49:58;5.40;;;2.97;;
39924;SDS011;25592;49.986;11.618;2022-07-29T09:52:48;13.98;;;3.47;;
39924;SDS011;25592;49.986;11.618;2022-07-29T09:55:51;5.10;;;2.92;;
39924;SDS011;25592;49.986;11.618;2022-07-29T09:58:36;10.27;;;2.85;;
39924;SDS011;25592;49.986;11.618;2022-07-29T10:01:28;5.35;;;2.45;;
39924;SDS011;25592;49.986;11.618;2022-07-29T10:04:13;4.63;;;2.78;;
39924;SDS011;25592;49.986;11.618;2022-07-29T10:06:59;4.47;;;2.40;;
39924;SDS011;25592;49.986;11.618;2022-07-29T10:09:49;4.93;;;2.65;;
39924;SDS011;25592;49.986;11.618;2022-07-29T10:12:48;7.38;;;3.28;;
39924;SDS011;25592;49.986;11.618;2022-07-29T10:15:36;7.13;;;3.67;;
39924;SDS011;25592;49.986;11.618;2022-07-29T10:18:25;6.38;;;2.42;;
39924;SDS011;25592;49.986;11.618;2022-07-29T10:21:10;4.55;;;2.47;;
39924;SDS011;25592;49.986;11.618;2022-07-29T10:24:17;5.95;;;2.40;;
39924;SDS011;25592;49.986;11.618;2022-07-29T10:27:03;5.15;;;2.63;;
39924;SDS011;25592;49.986;11.618;2022-07-29T10:29:50;6.75;;;2.72;;
39924;SDS011;25592;49.986;11.618;2022-07-29T10:32:49;4.20;;;2.70;;
39924;SDS011;25592;49.986;11.618;2022-07-29T10:39:14;6.43;;;2.95;;
39924;SDS011;25592;49.986;11.618;2022-07-29T10:45:16;7.30;;;3.15;;
39924;SDS011;25592;49.986;11.618;2022-07-29T10:48:03;5.40;;;2.92;;
39924;SDS011;25592;49.986;11.618;2022-07-29T10:51:10;4.07;;;2.47;;
39924;SDS011;25592;49.986;11.618;2022-07-29T10:54:35;6.07;;;2.65;;
39924;SDS011;25592;49.986;11.618;2022-07-29T10:57:28;6.00;;;2.70;;
39924;SDS011;25592;49.986;11.618;2022-07-29T11:00:35;4.50;;;2.97;;
39924;SDS011;25592;49.986;11.618;2022-07-29T11:12:57;6.97;;;2.33;;
39924;SDS011;25592;49.986;11.618;2022-07-29T11:15:55;7.60;;;2.78;;
39924;SDS011;25592;49.986;11.618;2022-07-29T11:21:57;11.63;;;3.08;;
39924;SDS011;25592;49.986;11.618;2022-07-29T11:24:43;9.10;;;2.88;;
39924;SDS011;25592;49.986;11.618;2022-07-29T11:27:34;7.78;;;2.90;;
39924;SDS011;25592;49.986;11.618;2022-07-29T11:30:46;7.10;;;2.80;;
39924;SDS011;25592;49.986;11.618;2022-07-29T11:33:37;4.95;;;2.95;;
39924;SDS011;25592;49.986;11.618;2022-07-29T11:37:13;4.63;;;3.08;;
39924;SDS011;25592;49.986;11.618;2022-07-29T11:42:46;5.20;;;3.28;;
39924;SDS011;25592;49.986;11.618;2022-07-29T11:45:45;5.22;;;2.97;;
39924;SDS011;25592;49.986;11.618;2022-07-29T11:48:32;5.15;;;2.60;;
39924;SDS011;25592;49.986;11.618;2022-07-29T11:51:19;5.38;;;2.92;;
39924;SDS011;25592;49.986;11.618;2022-07-29T11:54:16;4.03;;;2.97;;
39924;SDS011;25592;49.986;11.618;2022-07-29T11:57:11;6.57;;;2.97;;
39924;SDS011;25592;49.986;11.618;2022-07-29T11:59:59;5.28;;;2.97;;
39924;SDS011;25592;49.986;11.618;2022-07-29T12:02:56;4.15;;;2.85;;
39924;SDS011;25592;49.986;11.618;2022-07-29T12:05:44;4.82;;;2.80;;
39924;SDS011;25592;49.986;11.618;2022-07-29T12:08:39;5.72;;;2.90;;
39924;SDS011;25592;49.986;11.618;2022-07-29T12:11:27;5.07;;;2.65;;
39924;SDS011;25592;49.986;11.618;2022-07-29T12:14:26;6.53;;;2.90;;
39924;SDS011;25592;49.986;11.618;2022-07-29T12:20:21;5.53;;;3.25;;
39924;SDS011;25592;49.986;11.618;2022-07-29T12:23:09;6.65;;;2.85;;
39924;SDS011;25592;49.986;11.618;2022-07-29T12:25:57;7.05;;;2.85;;
39924;SDS011;25592;49.986;11.618;2022-07-29T12:28:43;6.45;;;2.70;;
39924;SDS011;25592;49.986;11.618;2022-07-29T12:31:30;8.75;;;2.95;;
39924;SDS011;25592;49.986;11.618;2022-07-29T12:34:29;8.02;;;2.92;;
39924;SDS011;25592;49.986;11.618;2022-07-29T12:37:15;11.13;;;3.63;;
39924;SDS011;25592;49.986;11.618;2022-07-29T12:40:01;12.27;;;3.13;;
39924;SDS011;25592;49.986;11.618;2022-07-29T12:43:04;5.95;;;3.35;;
39924;SDS011;25592;49.986;11.618;2022-07-29T12:45:56;6.57;;;3.03;;
39924;SDS011;25592;49.986;11.618;2022-07-29T12:48:42;9.10;;;4.20;;
39924;SDS011;25592;49.986;11.618;2022-07-29T12:51:32;8.43;;;3.30;;
39924;SDS011;25592;49.986;11.618;2022-07-29T12:54:18;12.27;;;4.93;;
39924;SDS011;25592;49.986;11.618;2022-07-29T12:57:03;14.93;;;4.80;;
39924;SDS011;25592;49.986;11.618;2022-07-29T13:02:57;10.80;;;4.25;;
39924;SDS011;25592;49.986;11.618;2022-07-29T13:05:43;14.90;;;5.32;;
39924;SDS011;25592;49.986;11.618;2022-07-29T13:08:33;9.00;;;4.20;;
39924;SDS011;25592;49.986;11.618;2022-07-29T13:11:34;8.73;;;4.40;;
39924;SDS011;25592;49.986;11.618;2022-07-29T13:14:36;10.60;;;5.00;;
39924;SDS011;25592;49.986;11.618;2022-07-29T13:17:23;12.90;;;4.50;;
39924;SDS011;25592;49.986;11.618;2022-07-29T13:20:16;7.85;;;4.60;;
39924;SDS011;25592;49.986;11.618;2022-07-29T13:23:01;13.57;;;5.22;;
39924;SDS011;25592;49.986;11.618;2022-07-29T13:25:47;11.57;;;5.25;;
39924;SDS011;25592;49.986;11.618;2022-07-29T13:28:32;8.30;;;4.25;;
39924;SDS011;25592;49.986;11.618;2022-07-29T13:31:18;7.80;;;3.90;;
39924;SDS011;25592;49.986;11.618;2022-07-29T13:34:04;8.40;;;3.80;;
39924;SDS011;25592;49.986;11.618;2022-07-29T13:36:49;5.35;;;3.53;;
39924;SDS011;25592;49.986;11.618;2022-07-29T13:39:35;7.18;;;3.38;;
39924;SDS011;25592;49.986;11.618;2022-07-29T13:42:23;5.63;;;3.50;;
39924;SDS011;25592;49.986;11.618;2022-07-29T13:45:12;7.90;;;3.42;;
39924;SDS011;25592;49.986;11.618;2022-07-29T13:48:12;7.40;;;3.85;;
39924;SDS011;25592;49.986;11.618;2022-07-29T13:50:58;6.45;;;3.40;;
39924;SDS011;25592;49.986;11.618;2022-07-29T13:53:43;4.75;;;3.22;;
39924;SDS011;25592;49.986;11.618;2022-07-29T13:56:29;5.93;;;3.30;;
39924;SDS011;25592;49.986;11.618;2022-07-29T13:59:15;4.85;;;3.38;;
39924;SDS011;25592;49.986;11.618;2022-07-29T14:02:00;4.60;;;3.47;;
39924;SDS011;25592;49.986;11.618;2022-07-29T14:04:46;5.68;;;3.40;;
39924;SDS011;25592;49.986;11.618;2022-07-29T14:07:31;4.93;;;2.97;;
39924;SDS011;25592;49.986;11.618;2022-07-29T14:10:17;4.40;;;3.05;;
39924;SDS011;25592;49.986;11.618;2022-07-29T14:13:04;7.53;;;3.10;;
39924;SDS011;25592;49.986;11.618;2022-07-29T14:16:08;6.43;;;3.55;;
39924;SDS011;25592;49.986;11.618;2022-07-29T14:18:54;4.35;;;2.85;;
39924;SDS011;25592;49.986;11.618;2022-07-29T14:21:39;4.32;;;2.78;;
39924;SDS011;25592;49.986;11.618;2022-07-29T14:24:25;5.53;;;2.75;;
39924;SDS011;25592;49.986;11.618;2022-07-29T14:27:10;9.77;;;3.80;;
39924;SDS011;25592;49.986;11.618;2022-07-29T14:29:56;7.75;;;3.10;;
39924;SDS011;25592;49.986;11.618;2022-07-29T14:32:43;3.70;;;2.40;;
39924;SDS011;25592;49.986;11.618;2022-07-29T14:35:29;5.53;;;2.83;;
39924;SDS011;25592;49.986;11.618;2022-07-29T14:38:14;7.55;;;2.85;;
39924;SDS011;25592;49.986;11.618;2022-07-29T14:41:00;3.97;;;2.80;;
39924;SDS011;25592;49.986;11.618;2022-07-29T14:43:46;4.30;;;2.88;;
39924;SDS011;25592;49.986;11.618;2022-07-29T14:46:32;4.63;;;2.55;;
39924;SDS011;25592;49.986;11.618;2022-07-29T14:49:17;6.97;;;2.83;;
39924;SDS011;25592;49.986;11.618;2022-07-29T14:52:03;4.68;;;2.75;;
39924;SDS011;25592;49.986;11.618;2022-07-29T14:54:49;7.13;;;2.60;;
39924;SDS011;25592;49.986;11.618;2022-07-29T14:57:34;4.40;;;2.58;;
39924;SDS011;25592;49.986;11.618;2022-07-29T15:00:20;4.47;;;2.63;;
39924;SDS011;25592;49.986;11.618;2022-07-29T15:03:05;4.35;;;2.72;;
39924;SDS011;25592;49.986;11.618;2022-07-29T15:05:55;3.97;;;2.47;;
39924;SDS011;25592;49.986;11.618;2022-07-29T15:08:40;5.53;;;3.33;;
39924;SDS011;25592;49.986;11.618;2022-07-29T15:11:26;3.90;;;2.80;;
39924;SDS011;25592;49.986;11.618;2022-07-29T15:14:11;5.60;;;2.95;;
39924;SDS011;25592;49.986;11.618;2022-07-29T15:16:57;3.50;;;1.98;;
39924;SDS011;25592;49.986;11.618;2022-07-29T15:19:44;5.53;;;2.53;;
39924;SDS011;25592;49.986;11.618;2022-07-29T15:22:29;3.30;;;2.25;;
39924;SDS011;25592;49.986;11.618;2022-07-29T15:25:15;3.75;;;2.38;;
39924;SDS011;25592;49.986;11.618;2022-07-29T15:28:00;4.10;;;2.10;;
39924;SDS011;25592;49.986;11.618;2022-07-29T15:30:47;3.20;;;1.73;;
39924;SDS011;25592;49.986;11.618;2022-07-29T15:33:33;5.60;;;2.30;;
39924;SDS011;25592;49.986;11.618;2022-07-29T15:36:18;3.88;;;2.45;;
39924;SDS011;25592;49.986;11.618;2022-07-29T15:39:23;5.75;;;2.63;;
39924;SDS011;25592;49.986;11.618;2022-07-29T15:42:09;4.82;;;2.58;;
39924;SDS011;25592;49.986;11.618;2022-07-29T15:44:54;4.22;;;2.63;;
39924;SDS011;25592;49.986;11.618;2022-07-29T15:47:40;4.85;;;2.55;;
39924;SDS011;25592;49.986;11.618;2022-07-29T15:50:25;3.45;;;2.13;;
39924;SDS011;25592;49.986;11.618;2022-07-29T15:53:11;3.55;;;2.20;;
39924;SDS011;25592;49.986;11.618;2022-07-29T15:55:56;4.07;;;2.30;;
39924;SDS011;25592;49.986;11.618;2022-07-29T15:58:42;5.05;;;2.85;;
39924;SDS011;25592;49.986;11.618;2022-07-29T16:01:27;5.15;;;2.50;;
39924;SDS011;25592;49.986;11.618;2022-07-29T16:04:13;3.60;;;2.38;;
39924;SDS011;25592;49.986;11.618;2022-07-29T16:06:59;3.65;;;2.35;;
39924;SDS011;25592;49.986;11.618;2022-07-29T16:09:45;4.38;;;2.45;;
39924;SDS011;25592;49.986;11.618;2022-07-29T16:12:36;4.13;;;2.63;;
39924;SDS011;25592;49.986;11.618;2022-07-29T16:15:22;4.60;;;2.42;;
39924;SDS011;25592;49.986;11.618;2022-07-29T16:18:08;5.00;;;2.30;;
39924;SDS011;25592;49.986;11.618;2022-07-29T16:20:54;5.65;;;2.78;;
39924;SDS011;25592;49.986;11.618;2022-07-29T16:23:39;4.60;;;2.90;;
39924;SDS011;25592;49.986;11.618;2022-07-29T16:26:25;5.10;;;2.88;;
39924;SDS011;25592;49.986;11.618;2022-07-29T16:29:11;7.88;;;3.20;;
39924;SDS011;25592;49.986;11.618;2022-07-29T16:31:56;7.93;;;2.70;;
39924;SDS011;25592;49.986;11.618;2022-07-29T16:34:42;4.53;;;2.70;;
39924;SDS011;25592;49.986;11.618;2022-07-29T16:37:27;11.38;;;4.15;;
39924;SDS011;25592;49.986;11.618;2022-07-29T16:40:17;6.47;;;3.08;;
39924;SDS011;25592;49.986;11.618;2022-07-29T16:43:02;6.28;;;3.05;;
39924;SDS011;25592;49.986;11.618;2022-07-29T16:45:50;5.40;;;2.67;;
39924;SDS011;25592;49.986;11.618;2022-07-29T16:48:36;5.15;;;3.00;;
39924;SDS011;25592;49.986;11.618;2022-07-29T16:51:23;5.50;;;2.47;;
39924;SDS011;25592;49.986;11.618;2022-07-29T16:54:08;5.80;;;2.65;;
39924;SDS011;25592;49.986;11.618;2022-07-29T16:56:54;5.90;;;2.97;;
39924;SDS011;25592;49.986;11.618;2022-07-29T16:59:40;4.68;;;2.70;;
39924;SDS011;25592;49.986;11.618;2022-07-29T17:02:27;7.40;;;3.47;;
39924;SDS011;25592;49.986;11.618;2022-07-29T17:05:13;7.22;;;3.38;;
39924;SDS011;25592;49.986;11.618;2022-07-29T17:07:59;6.07;;;3.28;;
39924;SDS011;25592;49.986;11.618;2022-07-29T17:10:44;6.70;;;3.15;;
39924;SDS011;25592;49.986;11.618;2022-07-29T17:13:30;7.80;;;3.17;;
39924;SDS011;25592;49.986;11.618;2022-07-29T17:16:15;6.03;;;3.42;;
39924;SDS011;25592;49.986;11.618;2022-07-29T17:19:01;4.72;;;2.70;;
39924;SDS011;25592;49.986;11.618;2022-07-29T17:21:47;4.75;;;3.05;;
39924;SDS011;25592;49.986;11.618;2022-07-29T17:24:33;9.45;;;3.75;;